createdAt,value
2018-09-02T00:01:42.283Z,11.73
2018-09-02T00:07:37.302Z,11.03
2018-09-02T00:13:32.337Z,11.02
2018-09-02T00:19:27.292Z,14.52
2018-09-02T00:25:22.364Z,19.61
2018-09-02T00:31:17.302Z,26.7
2018-09-02T00:37:12.334Z,55.77
2018-09-02T00:43:07.304Z,22.13
2018-09-02T00:49:02.308Z,32.85
2018-09-02T00:54:57.322Z,30.92
2018-09-02T01:00:52.313Z,21.94
2018-09-02T01:06:47.319Z,17.12
2018-09-02T01:12:42.396Z,10.71
2018-09-02T01:18:37.338Z,17.92
2018-09-02T01:24:32.337Z,15.22
2018-09-02T01:30:27.337Z,13.04
2018-09-02T01:36:22.335Z,16.48
2018-09-02T01:42:17.348Z,12.65
2018-09-02T01:48:12.354Z,16.42
2018-09-02T01:54:07.357Z,14.98
2018-09-02T02:00:02.821Z,16.15
2018-09-02T02:05:57.368Z,16.6
2018-09-02T02:11:52.353Z,21.11
2018-09-02T02:17:47.388Z,14.98
2018-09-02T02:23:42.579Z,14.4
2018-09-02T02:29:37.374Z,22.85
2018-09-02T02:35:32.438Z,20.96
2018-09-02T02:41:27.395Z,20.29
2018-09-02T02:47:22.376Z,13.9
2018-09-02T02:53:17.378Z,14.79
2018-09-02T02:59:12.370Z,11.26
2018-09-02T03:05:07.400Z,32.97
2018-09-02T03:11:02.412Z,21.13
2018-09-02T03:16:57.397Z,15.17
2018-09-02T03:22:52.404Z,15
2018-09-02T03:28:47.404Z,14.4
2018-09-02T03:34:42.423Z,14.43
2018-09-02T03:40:37.427Z,14.69
2018-09-02T03:46:32.435Z,15.48
2018-09-02T03:52:27.438Z,11.83
2018-09-02T03:58:22.432Z,14.59
2018-09-02T04:04:17.429Z,14.4
2018-09-02T04:10:12.419Z,11.45
2018-09-02T04:16:07.427Z,12.96
2018-09-02T04:22:02.438Z,12.55
2018-09-02T04:27:57.445Z,15.04
2018-09-02T04:33:52.497Z,14.28
2018-09-02T04:39:47.489Z,14.2
2018-09-02T04:45:42.483Z,20.4
2018-09-02T04:51:37.453Z,12.55
2018-09-02T04:57:32.499Z,17.98
2018-09-02T05:03:27.486Z,18.08
2018-09-02T05:09:22.457Z,14.15
2018-09-02T05:15:17.503Z,16.37
2018-09-02T05:21:12.527Z,22.37
2018-09-02T05:27:07.465Z,23.73
2018-09-02T05:33:02.523Z,9.98
2018-09-02T05:38:57.505Z,13.81
2018-09-02T05:44:52.518Z,15.41
2018-09-02T05:50:47.548Z,12.6
2018-09-02T05:56:42.521Z,15.93
2018-09-02T06:02:37.570Z,16.4
2018-09-02T06:08:32.524Z,14.54
2018-09-02T06:14:27.586Z,23.24
2018-09-02T06:20:22.506Z,23.69
2018-09-02T06:26:17.528Z,15.33
2018-09-02T06:32:12.515Z,18.47
2018-09-02T06:38:07.542Z,12.07
2018-09-02T06:44:02.537Z,11.64
2018-09-02T06:49:57.521Z,9.11
2018-09-02T06:55:52.533Z,6.28
2018-09-02T07:01:47.551Z,9.38
2018-09-02T07:07:42.532Z,6.99
2018-09-02T07:13:37.539Z,8.19
2018-09-02T07:19:32.592Z,8.37
2018-09-02T07:25:27.553Z,6.64
2018-09-02T07:31:22.612Z,6.06
2018-09-02T07:37:17.647Z,10.51
2018-09-02T07:43:12.554Z,8.67
2018-09-02T07:49:07.546Z,6.56
2018-09-02T07:55:02.577Z,7.05
2018-09-02T08:00:57.570Z,6.46
2018-09-02T08:06:52.579Z,6.08
2018-09-02T08:12:47.718Z,5.84
2018-09-02T08:18:42.584Z,16.08
2018-09-02T08:24:37.579Z,7.88
2018-09-02T08:30:32.613Z,10.23
2018-09-02T08:36:27.617Z,11.78
2018-09-02T08:42:22.630Z,8.73
2018-09-02T08:48:17.627Z,15.15
2018-09-02T08:54:12.587Z,12.38
2018-09-02T09:00:07.667Z,11.09
2018-09-02T09:06:02.671Z,10.07
2018-09-02T09:11:57.619Z,13.42
2018-09-02T09:17:52.663Z,7.25
2018-09-02T09:23:47.617Z,9.14
2018-09-02T09:29:42.623Z,9.05
2018-09-02T09:35:37.755Z,10.55
2018-09-02T09:41:32.655Z,12.54
2018-09-02T09:47:27.622Z,6.34
2018-09-02T09:53:22.610Z,9.57
2018-09-02T09:59:17.649Z,8.61
2018-09-02T10:05:12.700Z,13.21
2018-09-02T10:11:07.648Z,8.24
2018-09-02T10:17:02.716Z,12.77
2018-09-02T10:22:57.670Z,7.25
2018-09-02T10:28:52.657Z,8.76
2018-09-02T10:34:47.661Z,9.8
2018-09-02T10:40:42.689Z,7.73
2018-09-02T10:46:37.729Z,8.13
2018-09-02T10:52:32.684Z,6.83
2018-09-02T10:58:27.689Z,8.56
2018-09-02T11:04:22.712Z,7.91
2018-09-02T11:10:17.743Z,11.6
2018-09-02T11:16:12.703Z,5.53
2018-09-02T11:22:07.713Z,3.79
2018-09-02T11:28:02.695Z,2.4
2018-09-02T11:33:57.781Z,6.65
2018-09-02T11:39:52.709Z,0.3
2018-09-02T11:45:47.750Z,0.98
2018-09-02T11:51:42.753Z,5.51
2018-09-02T11:57:37.737Z,0.3
2018-09-02T12:03:32.725Z,0.3
2018-09-02T12:09:27.713Z,0.3
2018-09-02T12:15:22.724Z,0.3
2018-09-02T12:21:17.714Z,0.3
2018-09-02T12:27:12.724Z,0.3
2018-09-02T12:33:07.734Z,0.3
2018-09-02T12:39:02.723Z,0.3
2018-09-02T12:44:57.732Z,0.3
2018-09-02T12:50:52.762Z,0.3
2018-09-02T12:56:47.775Z,0.3
2018-09-02T13:02:42.794Z,0.3
2018-09-02T13:08:37.769Z,0.3
2018-09-02T13:14:32.756Z,0.3
2018-09-02T13:20:27.772Z,0.3
2018-09-02T13:26:22.768Z,0.3
2018-09-02T13:32:17.784Z,0.3
2018-09-02T13:38:12.817Z,0.33
2018-09-02T13:44:07.761Z,0.3
2018-09-02T13:50:02.827Z,0.3
2018-09-02T13:55:57.813Z,0.3
2018-09-02T14:01:52.814Z,0.3
2018-09-02T14:07:47.882Z,0.3
2018-09-02T14:13:42.795Z,0.3
2018-09-02T14:19:37.838Z,0.3
2018-09-02T14:25:32.792Z,4.23
2018-09-02T14:31:27.808Z,4.14
2018-09-02T14:37:22.819Z,4.35
2018-09-02T14:43:17.807Z,3.93
2018-09-02T14:49:12.823Z,5.24
2018-09-02T14:55:07.827Z,3.47
2018-09-02T15:01:02.809Z,4.97
2018-09-02T15:06:57.866Z,5.31
2018-09-02T15:12:52.824Z,3.5
2018-09-02T15:18:47.842Z,3.5
2018-09-02T15:24:42.838Z,4.01
2018-09-02T15:30:37.851Z,4.83
2018-09-02T15:36:32.863Z,5.09
2018-09-02T15:42:27.880Z,3.88
2018-09-02T15:48:22.838Z,7.38
2018-09-02T15:54:17.850Z,3.47
2018-09-02T16:00:12.872Z,2.81
2018-09-02T16:06:07.865Z,3.66
2018-09-02T16:12:02.893Z,3.43
2018-09-02T16:17:57.939Z,4.41
2018-09-02T16:23:52.867Z,7.11
2018-09-02T16:29:48.068Z,9.29
2018-09-02T16:35:42.891Z,2.43
2018-09-02T16:41:37.890Z,2.31
2018-09-02T16:47:32.908Z,5.38
2018-09-02T16:53:27.882Z,5.5
2018-09-02T16:59:22.899Z,4.77
2018-09-02T17:05:17.948Z,3.94
2018-09-02T17:11:12.926Z,6.33
2018-09-02T17:17:07.966Z,4.37
2018-09-02T17:23:02.901Z,3.92
2018-09-02T17:28:57.919Z,5.45
2018-09-02T17:34:52.955Z,2.98
2018-09-02T17:40:47.921Z,3.57
2018-09-02T17:46:42.901Z,5.99
2018-09-02T17:52:37.919Z,5.52
2018-09-02T17:58:32.920Z,7.1
2018-09-02T18:04:27.936Z,6.4
2018-09-02T18:10:22.941Z,7.3
2018-09-02T18:16:17.969Z,5.69
2018-09-02T18:22:12.968Z,8.34
2018-09-02T18:28:07.985Z,4.35
2018-09-02T18:34:02.965Z,5
2018-09-02T18:39:57.955Z,7.95
2018-09-02T18:45:52.968Z,6.73
2018-09-02T18:51:47.965Z,4.77
2018-09-02T18:57:42.971Z,7.47
2018-09-02T19:03:38.021Z,6.63
2018-09-02T19:09:32.970Z,12.84
2018-09-02T19:15:28.021Z,7.4
2018-09-02T19:21:22.986Z,6.66
2018-09-02T19:27:18.004Z,6.65
2018-09-02T19:33:12.995Z,7.6
2018-09-02T19:39:07.987Z,8.87
2018-09-02T19:45:02.973Z,5.01
2018-09-02T19:50:58.084Z,8.49
2018-09-02T19:56:53.016Z,5.61
2018-09-02T20:02:48.030Z,6.87
2018-09-02T20:08:43.026Z,10.25
2018-09-02T20:14:38.010Z,8.26
2018-09-02T20:20:33.040Z,7.67
2018-09-02T20:26:28.008Z,6.44
2018-09-02T20:32:23.057Z,8.53
2018-09-02T20:38:18.057Z,11.46
2018-09-02T20:44:13.032Z,6.97
2018-09-02T20:50:08.030Z,13.47
2018-09-02T20:56:03.042Z,10.55
2018-09-02T21:01:58.075Z,11.11
2018-09-02T21:07:53.043Z,12.03
2018-09-02T21:13:48.062Z,8
2018-09-02T21:19:43.045Z,10.54
2018-09-02T21:25:38.060Z,9.56
2018-09-02T21:31:33.169Z,8.13
2018-09-02T21:37:28.073Z,11.57
2018-09-02T21:43:23.074Z,9.6
2018-09-02T21:49:18.082Z,10.33
2018-09-02T21:55:13.091Z,13.18
2018-09-02T22:01:08.087Z,16.44
2018-09-02T22:07:03.073Z,7.82
2018-09-02T22:12:58.093Z,12
2018-09-02T22:18:53.090Z,12.06
2018-09-02T22:24:48.162Z,9.82
2018-09-02T22:30:43.105Z,9.52
2018-09-02T22:36:38.126Z,11.26
2018-09-02T22:42:33.088Z,15.16
2018-09-02T22:48:28.098Z,9.94
2018-09-02T22:54:23.108Z,12.73
2018-09-02T23:00:18.103Z,6.74
2018-09-02T23:06:13.151Z,9.7
2018-09-02T23:12:08.129Z,7.26
2018-09-02T23:18:03.143Z,9.68
2018-09-02T23:23:58.118Z,9.8
2018-09-02T23:29:53.162Z,12.6
2018-09-02T23:35:48.153Z,8.56
2018-09-02T23:41:43.155Z,12.56
2018-09-02T23:47:38.139Z,12.59
2018-09-02T23:53:33.153Z,7.43
2018-09-02T23:59:28.250Z,13.25
